createdAt,value
2023-12-12T00:02:03.592Z,2.45
2023-12-12T00:04:30.454Z,3.08
2023-12-12T00:06:58.064Z,3.47
2023-12-12T00:09:24.834Z,3.53
2023-12-12T00:11:51.628Z,4.53
2023-12-12T00:14:19.268Z,3.78
2023-12-12T00:16:46.612Z,3.58
2023-12-12T00:19:13.623Z,3.40
2023-12-12T00:21:40.699Z,3.95
2023-12-12T00:24:07.859Z,3.70
2023-12-12T00:26:34.640Z,2.95
2023-12-12T00:29:01.442Z,3.72
2023-12-12T00:31:28.242Z,2.17
2023-12-12T00:33:56.128Z,3.85
2023-12-12T00:36:23.258Z,3.17
2023-12-12T00:38:50.877Z,3.35
2023-12-12T00:41:17.730Z,3.13
2023-12-12T00:43:45.216Z,3.15
2023-12-12T00:46:12.863Z,3.42
2023-12-12T00:48:40.630Z,3.67
2023-12-12T00:51:10.273Z,4.10
2023-12-12T00:53:37.073Z,3.00
2023-12-12T00:56:04.774Z,2.45
2023-12-12T00:58:31.691Z,2.58
2023-12-12T01:00:59.353Z,2.45
2023-12-12T01:03:26.406Z,3.10
2023-12-12T01:05:53.262Z,2.15
2023-12-12T01:08:20.136Z,3.72
2023-12-12T01:10:46.968Z,2.45
2023-12-12T01:13:13.830Z,3.50
2023-12-12T01:15:41.724Z,2.97
2023-12-12T01:18:08.677Z,3.33
2023-12-12T01:20:35.509Z,3.22
2023-12-12T01:23:02.260Z,2.65
2023-12-12T01:25:30.638Z,1.67
2023-12-12T01:27:57.676Z,2.47
2023-12-12T01:30:25.024Z,2.20
2023-12-12T01:32:52.328Z,3.17
2023-12-12T01:35:19.162Z,2.38
2023-12-12T01:37:45.935Z,1.73
2023-12-12T01:40:13.566Z,1.98
2023-12-12T01:42:40.363Z,1.92
2023-12-12T01:45:07.879Z,2.22
2023-12-12T01:47:35.172Z,2.65
2023-12-12T01:50:02.901Z,1.63
2023-12-12T01:52:30.156Z,2.15
2023-12-12T01:54:58.094Z,1.58
2023-12-12T01:57:25.791Z,1.70
2023-12-12T01:59:53.885Z,1.63
2023-12-12T02:02:21.100Z,1.77
2023-12-12T02:04:51.228Z,1.50
2023-12-12T02:07:19.325Z,1.50
2023-12-12T02:09:46.445Z,1.75
2023-12-12T02:12:13.378Z,1.80
2023-12-12T02:14:41.175Z,0.98
2023-12-12T02:17:08.012Z,1.02
2023-12-12T02:19:35.047Z,1.73
2023-12-12T02:22:02.018Z,1.35
2023-12-12T02:24:28.820Z,1.40
2023-12-12T02:26:56.950Z,1.70
2023-12-12T02:29:23.997Z,1.13
2023-12-12T02:31:50.724Z,1.73
2023-12-12T02:34:20.951Z,2.30
2023-12-12T02:36:48.512Z,2.33
2023-12-12T02:39:15.639Z,2.47
2023-12-12T02:41:43.064Z,1.50
2023-12-12T02:44:10.060Z,2.03
2023-12-12T02:46:37.184Z,1.80
2023-12-12T02:49:04.102Z,1.30
2023-12-12T02:51:32.317Z,1.70
2023-12-12T02:54:02.045Z,1.63
2023-12-12T02:56:35.174Z,1.67
2023-12-12T02:59:02.117Z,1.75
2023-12-12T03:01:29.569Z,1.80
2023-12-12T03:03:56.441Z,1.85
2023-12-12T03:06:23.272Z,2.30
2023-12-12T03:08:50.317Z,2.25
2023-12-12T03:11:17.733Z,1.83
2023-12-12T03:13:44.501Z,1.83
2023-12-12T03:16:11.295Z,1.85
2023-12-12T03:18:38.224Z,2.35
2023-12-12T03:21:05.348Z,2.80
2023-12-12T03:23:32.023Z,1.67
2023-12-12T03:25:58.731Z,2.65
2023-12-12T03:28:28.570Z,2.53
2023-12-12T03:30:57.771Z,2.47
2023-12-12T03:33:30.798Z,2.63
2023-12-12T03:35:57.592Z,2.33
2023-12-12T03:38:25.955Z,2.22
2023-12-12T03:40:52.970Z,1.83
2023-12-12T03:43:20.698Z,2.35
2023-12-12T03:45:47.446Z,2.00
2023-12-12T03:48:15.159Z,3.15
2023-12-12T03:50:42.053Z,3.30
2023-12-12T03:53:08.773Z,2.30
2023-12-12T03:55:35.542Z,2.95
2023-12-12T03:58:02.410Z,2.28
2023-12-12T04:00:29.138Z,1.40
2023-12-12T04:02:55.995Z,1.88
2023-12-12T04:05:23.443Z,1.45
2023-12-12T04:07:50.173Z,1.38
2023-12-12T04:10:16.926Z,1.95
2023-12-12T04:12:43.839Z,1.88
2023-12-12T04:15:10.910Z,1.67
2023-12-12T04:17:39.309Z,1.73
2023-12-12T04:20:07.493Z,1.70
2023-12-12T04:22:34.780Z,1.55
2023-12-12T04:25:01.708Z,0.90
2023-12-12T04:27:28.703Z,0.70
2023-12-12T04:29:55.516Z,1.10
2023-12-12T04:32:22.241Z,1.05
2023-12-12T04:34:49.720Z,0.70
2023-12-12T04:37:17.319Z,0.98
2023-12-12T04:39:44.046Z,0.70
2023-12-12T04:42:13.644Z,1.10
2023-12-12T04:44:42.934Z,0.80
2023-12-12T04:47:09.964Z,1.45
2023-12-12T04:49:37.941Z,0.52
2023-12-12T04:52:05.364Z,1.50
2023-12-12T04:54:32.209Z,0.63
2023-12-12T04:56:59.373Z,0.70
2023-12-12T04:59:26.132Z,1.80
2023-12-12T05:01:53.313Z,1.20
2023-12-12T05:04:20.138Z,1.85
2023-12-12T05:06:48.985Z,0.60
2023-12-12T05:09:15.843Z,1.45
2023-12-12T05:11:42.647Z,1.20
2023-12-12T05:14:12.328Z,1.13
2023-12-12T05:16:39.164Z,1.17
2023-12-12T05:19:06.097Z,0.90
2023-12-12T05:21:33.594Z,1.23
2023-12-12T05:24:01.114Z,1.02
2023-12-12T05:26:28.350Z,0.60
2023-12-12T05:28:55.195Z,0.80
2023-12-12T05:31:25.571Z,0.75
2023-12-12T05:33:52.743Z,1.15
2023-12-12T05:36:19.611Z,0.73
2023-12-12T05:38:46.342Z,0.80
2023-12-12T05:41:13.141Z,0.68
2023-12-12T05:43:39.894Z,0.63
2023-12-12T05:46:06.847Z,1.00
2023-12-12T05:48:33.747Z,0.95
2023-12-12T05:51:00.564Z,1.00
2023-12-12T05:53:28.142Z,1.38
2023-12-12T05:55:57.088Z,0.80
2023-12-12T05:58:24.127Z,1.00
2023-12-12T06:00:52.954Z,1.25
2023-12-12T06:03:19.875Z,1.25
2023-12-12T06:05:46.730Z,0.73
2023-12-12T06:08:13.481Z,1.60
2023-12-12T06:10:41.216Z,0.50
2023-12-12T06:13:08.754Z,0.60
2023-12-12T06:15:35.542Z,0.40
2023-12-12T06:18:02.272Z,0.55
2023-12-12T06:20:31.815Z,0.30
2023-12-12T06:22:58.534Z,0.22
2023-12-12T06:25:25.330Z,0.80
2023-12-12T06:27:52.085Z,0.20
2023-12-12T06:30:18.967Z,0.30
2023-12-12T06:32:47.228Z,0.40
2023-12-12T06:35:15.103Z,0.45
2023-12-12T06:37:42.161Z,0.38
2023-12-12T06:40:13.287Z,0.82
2023-12-12T06:42:40.804Z,0.40
2023-12-12T06:45:11.779Z,0.60
2023-12-12T06:47:38.669Z,0.77
2023-12-12T06:50:06.165Z,0.63
2023-12-12T06:52:36.033Z,0.93
2023-12-12T06:55:02.854Z,0.77
2023-12-12T06:57:29.967Z,0.47
2023-12-12T06:59:57.328Z,1.58
2023-12-12T07:02:24.168Z,0.88
2023-12-12T07:04:51.001Z,0.30
2023-12-12T07:07:17.811Z,1.05
2023-12-12T07:09:44.614Z,0.75
2023-12-12T07:14:56.815Z,0.77
2023-12-12T07:17:23.596Z,0.70
2023-12-12T07:19:50.560Z,0.57
2023-12-12T07:22:17.731Z,1.45
2023-12-12T07:24:44.537Z,1.08
2023-12-12T07:27:11.546Z,1.48
2023-12-12T07:29:39.216Z,0.77
2023-12-12T07:32:07.985Z,1.38
2023-12-12T07:34:34.792Z,1.48
2023-12-12T07:37:01.668Z,0.77
2023-12-12T07:39:28.442Z,0.85
2023-12-12T07:41:55.411Z,1.02
2023-12-12T07:44:22.690Z,0.82
2023-12-12T07:46:49.920Z,0.77
2023-12-12T07:49:17.061Z,0.85
2023-12-12T07:51:44.089Z,2.05
2023-12-12T07:54:11.374Z,0.68
2023-12-12T07:56:38.219Z,0.82
2023-12-12T07:59:04.950Z,0.60
2023-12-12T08:01:32.297Z,0.70
2023-12-12T08:03:59.290Z,0.43
2023-12-12T08:06:28.160Z,0.90
2023-12-12T08:08:55.153Z,0.90
2023-12-12T08:11:25.588Z,0.47
2023-12-12T08:13:52.598Z,1.05
2023-12-12T08:16:19.510Z,0.73
2023-12-12T08:18:47.208Z,0.93
2023-12-12T08:21:14.017Z,0.80
2023-12-12T08:23:43.545Z,0.90
2023-12-12T08:26:13.527Z,1.00
2023-12-12T08:28:40.412Z,0.70
2023-12-12T08:31:07.652Z,1.00
2023-12-12T08:33:35.351Z,0.73
2023-12-12T08:36:02.268Z,1.08
2023-12-12T08:38:30.483Z,2.22
2023-12-12T08:40:57.175Z,3.90
2023-12-12T08:43:24.533Z,2.72
2023-12-12T08:45:55.700Z,2.55
2023-12-12T08:48:24.608Z,2.97
2023-12-12T08:50:51.831Z,4.05
2023-12-12T08:53:18.743Z,2.85
2023-12-12T08:55:46.545Z,2.70
2023-12-12T08:58:13.490Z,3.00
2023-12-12T09:00:40.350Z,2.88
2023-12-12T09:03:07.560Z,3.15
2023-12-12T09:05:37.529Z,2.75
2023-12-12T09:08:04.855Z,2.38
2023-12-12T09:10:32.476Z,5.80
2023-12-12T09:12:59.326Z,3.42
2023-12-12T09:15:26.158Z,5.10
2023-12-12T09:18:05.775Z,5.53
2023-12-12T09:20:39.815Z,3.60
2023-12-12T09:23:06.568Z,5.43
2023-12-12T09:25:33.549Z,4.68
2023-12-12T09:28:00.376Z,3.70
2023-12-12T09:30:28.145Z,3.67
2023-12-12T09:32:55.241Z,7.15
2023-12-12T09:35:22.206Z,5.55
2023-12-12T09:37:48.887Z,3.28
2023-12-12T09:40:15.707Z,3.17
2023-12-12T09:42:42.545Z,4.32
2023-12-12T09:45:16.546Z,6.18
2023-12-12T09:47:45.944Z,3.92
2023-12-12T09:50:13.679Z,4.45
2023-12-12T09:52:40.902Z,2.63
2023-12-12T09:55:08.151Z,2.72
2023-12-12T09:57:35.273Z,4.70
2023-12-12T10:00:02.369Z,4.38
2023-12-12T10:02:35.804Z,4.00
2023-12-12T10:05:06.195Z,4.13
2023-12-12T10:07:35.168Z,5.05
2023-12-12T10:10:05.950Z,4.22
2023-12-12T10:12:32.809Z,4.72
2023-12-12T10:14:59.823Z,4.28
2023-12-12T10:17:28.325Z,4.53
2023-12-12T10:20:01.450Z,5.43
2023-12-12T10:22:35.188Z,4.85
2023-12-12T10:25:13.167Z,4.47
2023-12-12T10:27:44.735Z,3.88
2023-12-12T10:30:13.855Z,3.58
2023-12-12T10:32:42.214Z,3.80
2023-12-12T10:35:09.203Z,5.72
2023-12-12T10:37:36.174Z,3.35
2023-12-12T10:40:24.140Z,4.15
2023-12-12T10:42:52.128Z,3.55
2023-12-12T10:45:19.481Z,3.47
2023-12-12T10:47:48.300Z,3.30
2023-12-12T10:50:16.992Z,3.88
2023-12-12T10:52:45.573Z,3.75
2023-12-12T10:55:14.463Z,3.92
2023-12-12T10:57:45.961Z,3.63
2023-12-12T11:00:18.305Z,3.83
2023-12-12T11:02:47.493Z,3.55
2023-12-12T11:05:16.258Z,3.80
2023-12-12T11:07:49.573Z,3.35
2023-12-12T11:10:19.996Z,4.15
2023-12-12T11:12:52.180Z,3.97
2023-12-12T11:15:20.630Z,5.20
2023-12-12T11:17:48.775Z,4.07
2023-12-12T11:20:18.323Z,4.40
2023-12-12T11:22:52.356Z,4.63
2023-12-12T11:25:24.099Z,2.90
2023-12-12T11:27:58.501Z,3.13
2023-12-12T11:30:46.474Z,4.85
2023-12-12T11:33:13.493Z,4.45
2023-12-12T11:35:40.455Z,3.58
2023-12-12T11:38:26.666Z,3.80
2023-12-12T11:41:10.467Z,2.33
2023-12-12T11:43:37.431Z,1.27
2023-12-12T11:46:23.251Z,2.40
2023-12-12T11:48:50.606Z,1.52
2023-12-12T11:51:35.553Z,1.33
2023-12-12T11:54:18.065Z,1.30
2023-12-12T11:56:44.823Z,0.80
2023-12-12T11:59:11.784Z,1.48
2023-12-12T12:01:38.744Z,0.95
2023-12-12T12:04:05.613Z,1.27
2023-12-12T12:06:32.336Z,1.67
2023-12-12T12:08:59.161Z,1.58
2023-12-12T12:11:37.424Z,1.67
2023-12-12T12:14:04.734Z,1.92
2023-12-12T12:16:31.575Z,2.08
2023-12-12T12:18:58.514Z,2.08
2023-12-12T12:21:26.723Z,1.63
2023-12-12T12:23:54.120Z,3.03
2023-12-12T12:26:21.125Z,1.50
2023-12-12T12:28:48.688Z,0.85
2023-12-12T12:31:28.801Z,1.38
2023-12-12T12:33:55.679Z,1.40
2023-12-12T12:36:22.923Z,1.17
2023-12-12T12:38:49.659Z,2.42
2023-12-12T12:41:25.947Z,1.52
2023-12-12T12:43:53.948Z,1.80
2023-12-12T12:46:20.808Z,1.90
2023-12-12T12:48:47.608Z,1.33
2023-12-12T12:51:14.463Z,0.98
2023-12-12T12:53:41.792Z,2.65
2023-12-12T12:56:09.228Z,1.40
2023-12-12T12:58:36.058Z,1.58
2023-12-12T13:01:02.967Z,1.65
2023-12-12T13:03:32.305Z,0.82
2023-12-12T13:05:59.916Z,0.90
2023-12-12T13:08:26.742Z,1.27
2023-12-12T13:10:53.510Z,1.75
2023-12-12T13:13:21.539Z,1.38
2023-12-12T13:15:49.652Z,0.80
2023-12-12T13:18:19.125Z,0.75
2023-12-12T13:20:47.339Z,1.33
2023-12-12T13:23:14.228Z,1.90
2023-12-12T13:25:42.151Z,1.40
2023-12-12T13:28:10.335Z,2.70
2023-12-12T13:30:37.667Z,1.83
2023-12-12T13:33:07.197Z,1.05
2023-12-12T13:35:37.352Z,1.60
2023-12-12T13:38:05.172Z,1.00
2023-12-12T13:40:33.298Z,1.40
2023-12-12T13:43:00.403Z,1.17
2023-12-12T13:45:27.171Z,1.10
2023-12-12T13:47:54.068Z,1.13
2023-12-12T13:50:22.559Z,1.17
2023-12-12T13:52:49.458Z,1.02
2023-12-12T13:55:16.255Z,1.40
2023-12-12T13:57:43.025Z,0.90
2023-12-12T14:00:11.321Z,0.88
2023-12-12T14:02:38.742Z,0.80
2023-12-12T14:05:06.832Z,0.75
2023-12-12T14:07:34.173Z,0.95
2023-12-12T14:10:02.196Z,0.82
2023-12-12T14:12:29.059Z,0.77
2023-12-12T14:14:59.909Z,0.40
2023-12-12T14:17:27.282Z,1.23
2023-12-12T14:19:54.279Z,1.35
2023-12-12T14:22:21.045Z,1.00
2023-12-12T14:24:51.081Z,1.02
2023-12-12T14:27:18.053Z,0.55
2023-12-12T14:29:45.628Z,0.57
2023-12-12T14:32:12.385Z,0.60
2023-12-12T14:34:40.346Z,0.88
2023-12-12T14:37:07.119Z,0.50
2023-12-12T14:39:33.870Z,0.65
2023-12-12T14:42:00.660Z,0.70
2023-12-12T14:44:27.486Z,0.73
2023-12-12T14:46:55.078Z,0.70
2023-12-12T14:49:22.331Z,1.23
2023-12-12T14:51:49.065Z,1.50
2023-12-12T14:54:16.087Z,0.80
2023-12-12T14:56:43.846Z,1.88
2023-12-12T14:59:11.325Z,1.50
2023-12-12T15:01:38.186Z,0.68
2023-12-12T15:04:06.458Z,0.90
2023-12-12T15:06:33.633Z,1.10
2023-12-12T15:09:00.816Z,0.60
2023-12-12T15:11:27.553Z,0.73
2023-12-12T15:13:55.323Z,1.10
2023-12-12T15:16:22.161Z,0.77
2023-12-12T15:18:48.988Z,1.27
2023-12-12T15:21:15.824Z,0.80
2023-12-12T15:23:42.886Z,1.05
2023-12-12T15:26:09.758Z,2.05
2023-12-12T15:28:36.642Z,0.90
2023-12-12T15:31:03.748Z,1.05
2023-12-12T15:33:33.025Z,1.63
2023-12-12T15:36:05.155Z,2.17
2023-12-12T15:38:32.004Z,1.83
2023-12-12T15:40:58.785Z,1.73
2023-12-12T15:43:25.551Z,1.60
2023-12-12T15:45:53.237Z,1.17
2023-12-12T15:48:20.580Z,1.67
2023-12-12T15:50:47.543Z,2.20
2023-12-12T15:53:14.321Z,1.63
2023-12-12T15:55:41.796Z,1.55
2023-12-12T15:58:09.178Z,1.95
2023-12-12T16:00:39.777Z,1.85
2023-12-12T16:03:10.739Z,1.75
2023-12-12T16:05:37.709Z,1.42
2023-12-12T16:08:05.936Z,1.50
2023-12-12T16:10:32.707Z,1.00
2023-12-12T16:12:59.512Z,1.63
2023-12-12T16:15:27.292Z,2.15
2023-12-12T16:17:54.158Z,2.20
2023-12-12T16:20:21.201Z,1.95
2023-12-12T16:22:48.078Z,1.88
2023-12-12T16:25:15.040Z,1.77
2023-12-12T16:27:49.736Z,2.15
2023-12-12T16:30:18.591Z,2.85
2023-12-12T16:32:45.375Z,2.08
2023-12-12T16:35:12.728Z,1.60
2023-12-12T16:37:45.268Z,2.47
2023-12-12T16:42:39.268Z,1.70
2023-12-12T16:45:06.701Z,3.78
2023-12-12T16:47:35.813Z,2.22
2023-12-12T16:50:04.244Z,2.33
2023-12-12T16:52:31.524Z,2.50
2023-12-12T16:54:58.548Z,2.90
2023-12-12T16:57:25.296Z,2.20
2023-12-12T16:59:52.078Z,3.42
2023-12-12T17:02:18.860Z,2.33
2023-12-12T17:04:46.813Z,2.22
2023-12-12T17:07:13.731Z,3.20
2023-12-12T17:09:41.986Z,3.05
2023-12-12T17:12:08.764Z,3.53
2023-12-12T17:14:35.634Z,2.35
2023-12-12T17:17:02.877Z,2.25
2023-12-12T17:19:29.781Z,3.47
2023-12-12T17:21:57.754Z,2.55
2023-12-12T17:24:24.571Z,2.63
2023-12-12T17:26:51.471Z,3.13
2023-12-12T17:29:18.257Z,3.97
2023-12-12T17:31:45.986Z,2.08
2023-12-12T17:34:13.671Z,2.55
2023-12-12T17:36:40.735Z,2.97
2023-12-12T17:39:08.181Z,3.97
2023-12-12T17:41:35.367Z,2.42
2023-12-12T17:44:02.203Z,2.90
2023-12-12T17:46:29.012Z,2.50
2023-12-12T17:49:01.592Z,2.22
2023-12-12T17:51:28.469Z,2.90
2023-12-12T17:53:55.259Z,2.97
2023-12-12T17:56:24.359Z,2.45
2023-12-12T17:58:51.313Z,4.35
2023-12-12T18:01:18.141Z,4.30
2023-12-12T18:03:45.544Z,2.30
2023-12-12T18:06:12.406Z,3.60
2023-12-12T18:08:41.998Z,3.42
2023-12-12T18:11:08.910Z,3.38
2023-12-12T18:13:36.882Z,3.72
2023-12-12T18:16:03.915Z,3.80
2023-12-12T18:18:32.100Z,4.45
2023-12-12T18:20:58.969Z,4.25
2023-12-12T18:23:26.212Z,3.30
2023-12-12T18:25:53.099Z,3.25
2023-12-12T18:28:19.963Z,2.72
2023-12-12T18:30:50.074Z,3.65
2023-12-12T18:33:17.091Z,3.05
2023-12-12T18:35:43.920Z,3.15
2023-12-12T18:38:10.990Z,2.60
2023-12-12T18:40:37.991Z,3.78
2023-12-12T18:43:05.825Z,3.70
2023-12-12T18:45:32.941Z,4.07
2023-12-12T18:48:00.396Z,3.35
2023-12-12T18:50:27.295Z,2.65
2023-12-12T18:52:54.861Z,3.22
2023-12-12T18:55:22.092Z,2.22
2023-12-12T18:57:49.697Z,2.95
2023-12-12T19:00:16.745Z,1.73
2023-12-12T19:02:44.085Z,2.75
2023-12-12T19:05:13.413Z,2.40
2023-12-12T19:07:41.887Z,2.00
2023-12-12T19:10:11.170Z,2.70
2023-12-12T19:12:46.844Z,2.10
2023-12-12T19:15:17.206Z,2.88
2023-12-12T19:17:44.212Z,2.70
2023-12-12T19:20:12.903Z,2.55
2023-12-12T19:22:40.594Z,2.65
2023-12-12T19:25:08.381Z,2.72
2023-12-12T19:27:36.245Z,3.90
2023-12-12T19:30:05.244Z,2.42
2023-12-12T19:32:36.639Z,2.72
2023-12-12T19:35:05.138Z,2.58
2023-12-12T19:37:32.335Z,3.00
2023-12-12T19:40:00.222Z,3.35
2023-12-12T19:42:29.897Z,3.90
2023-12-12T19:44:57.225Z,2.70
2023-12-12T19:47:24.007Z,3.20
2023-12-12T19:49:53.619Z,1.92
2023-12-12T19:52:23.595Z,3.42
2023-12-12T19:54:51.545Z,3.60
2023-12-12T19:57:18.500Z,3.00
2023-12-12T19:59:51.607Z,2.50
2023-12-12T20:02:18.540Z,3.38
2023-12-12T20:04:45.331Z,3.08
2023-12-12T20:07:23.239Z,1.75
2023-12-12T20:09:53.982Z,2.72
2023-12-12T20:12:25.629Z,2.80
2023-12-12T20:14:52.511Z,3.60
2023-12-12T20:17:19.433Z,2.63
2023-12-12T20:19:46.254Z,2.33
2023-12-12T20:22:16.574Z,4.15
2023-12-12T20:24:46.580Z,1.95
2023-12-12T20:27:13.663Z,2.05
2023-12-12T20:29:40.699Z,1.85
2023-12-12T20:32:11.868Z,1.70
2023-12-12T20:34:38.876Z,1.45
2023-12-12T20:37:06.012Z,3.00
2023-12-12T20:39:32.885Z,2.30
2023-12-12T20:42:05.225Z,2.33
2023-12-12T20:44:32.017Z,2.20
2023-12-12T20:46:58.818Z,2.20
2023-12-12T20:49:25.760Z,1.77
2023-12-12T20:51:53.987Z,1.90
2023-12-12T20:54:24.829Z,4.40
2023-12-12T20:59:53.275Z,1.40
2023-12-12T21:02:32.302Z,1.98
2023-12-12T21:05:00.701Z,1.95
2023-12-12T21:07:51.174Z,1.58
2023-12-12T21:13:20.527Z,1.23
2023-12-12T21:15:48.550Z,1.13
2023-12-12T21:18:15.594Z,1.48
2023-12-12T21:20:42.397Z,2.22
2023-12-12T21:23:09.624Z,1.88
2023-12-12T21:25:36.568Z,1.73
2023-12-12T21:28:04.440Z,1.58
2023-12-12T21:30:31.904Z,1.30
2023-12-12T21:32:59.340Z,1.45
2023-12-12T21:35:26.701Z,1.38
2023-12-12T21:37:53.493Z,1.83
2023-12-12T21:40:20.430Z,1.02
2023-12-12T21:42:53.559Z,1.75
2023-12-12T21:45:20.536Z,1.55
2023-12-12T21:47:48.196Z,2.05
2023-12-12T21:50:15.143Z,1.42
2023-12-12T21:52:42.537Z,1.45
2023-12-12T21:55:11.023Z,2.10
2023-12-12T21:57:37.942Z,1.50
2023-12-12T22:00:08.355Z,1.77
2023-12-12T22:02:35.113Z,1.20
2023-12-12T22:05:01.867Z,1.25
2023-12-12T22:07:28.746Z,1.40
2023-12-12T22:09:55.608Z,1.92
2023-12-12T22:12:22.460Z,1.50
2023-12-12T22:14:50.332Z,0.75
2023-12-12T22:17:17.920Z,1.58
2023-12-12T22:19:54.754Z,1.63
2023-12-12T22:22:29.319Z,1.83
2023-12-12T22:24:56.164Z,1.60
2023-12-12T22:27:22.946Z,1.38
2023-12-12T22:29:49.907Z,1.70
2023-12-12T22:32:16.667Z,1.80
2023-12-12T22:34:43.464Z,1.02
2023-12-12T22:37:12.759Z,1.40
2023-12-12T22:39:39.528Z,0.85
2023-12-12T22:42:13.834Z,1.00
2023-12-12T22:44:40.683Z,1.52
2023-12-12T22:47:10.623Z,1.70
2023-12-12T22:49:37.583Z,1.35
2023-12-12T22:52:04.774Z,1.38
2023-12-12T22:54:31.583Z,1.98
2023-12-12T22:56:58.299Z,1.20
2023-12-12T22:59:25.631Z,1.27
2023-12-12T23:01:52.498Z,0.90
2023-12-12T23:04:19.407Z,0.85
2023-12-12T23:06:46.871Z,1.08
2023-12-12T23:09:13.668Z,1.40
2023-12-12T23:11:40.761Z,1.75
2023-12-12T23:14:07.745Z,1.13
2023-12-12T23:16:35.538Z,1.85
2023-12-12T23:19:02.904Z,0.80
2023-12-12T23:21:29.962Z,1.27
2023-12-12T23:23:56.815Z,1.13
2023-12-12T23:26:23.704Z,0.90
2023-12-12T23:28:53.224Z,1.10
2023-12-12T23:31:20.163Z,0.95
2023-12-12T23:33:47.345Z,0.88
2023-12-12T23:36:14.271Z,1.20
2023-12-12T23:38:40.987Z,1.20
2023-12-12T23:41:07.831Z,1.00
2023-12-12T23:43:36.529Z,1.33
2023-12-12T23:46:03.771Z,1.33
2023-12-12T23:48:30.880Z,1.00
2023-12-12T23:50:57.946Z,2.38
2023-12-12T23:53:25.008Z,1.10
2023-12-12T23:55:52.192Z,1.35
2023-12-12T23:58:19.070Z,1.73
